Time;durP1;ratioP1;P1;durP2;ratioP2;P2;SDS_P1;SDS_P2;PMS_P1;PMS_P2;Temp;Humidity;BMP_temperature;BMP_pressure;BME280_temperature;BME280_humidity;BME280_pressure;Samples;Min_cycle;Max_cycle;Signal;HPM_P1;HPM_P2
2022/12/04 00:01:31;;;;;;;5.45;3.85;;;22.20;53.20;;;;;;5054003;28;20028;-71
2022/12/04 00:03:59;;;;;;;8.15;5.43;;;22.30;53.60;;;;;;5071674;28;20081;-70
2022/12/04 00:06:26;;;;;;;7.53;5.10;;;22.20;53.50;;;;;;5071856;28;20045;-71
2022/12/04 00:08:52;;;;;;;9.05;5.38;;;22.20;53.40;;;;;;5059009;28;20524;-71
2022/12/04 00:11:22;;;;;;;8.18;4.97;;;22.20;53.40;;;;;;5069948;28;20052;-71
2022/12/04 00:13:48;;;;;;;10.27;5.05;;;22.30;53.60;;;;;;5071501;28;20078;-71
2022/12/04 00:16:20;;;;;;;6.45;4.93;;;22.10;53.90;;;;;;5071741;28;20052;-71
2022/12/04 00:18:46;;;;;;;6.93;4.07;;;22.20;53.60;;;;;;5071654;28;20105;-71
2022/12/04 00:21:14;;;;;;;9.38;5.10;;;22.10;53.90;;;;;;5071572;28;20740;-70
2022/12/04 00:23:41;;;;;;;7.82;4.47;;;22.10;53.60;;;;;;5070159;28;20493;-71
2022/12/04 00:26:19;;;;;;;7.65;4.63;;;22.10;53.50;;;;;;5052210;28;20044;-70
2022/12/04 00:28:45;;;;;;;7.28;4.15;;;22.10;53.40;;;;;;5071548;28;20021;-71
2022/12/04 00:31:14;;;;;;;6.68;4.60;;;22.20;53.30;;;;;;5070330;28;20236;-71
2022/12/04 00:33:40;;;;;;;8.73;4.70;;;22.10;53.30;;;;;;5071069;28;20115;-71
2022/12/04 00:36:10;;;;;;;6.38;4.43;;;22.10;53.50;;;;;;5069538;28;20150;-71
2022/12/04 00:38:37;;;;;;;6.22;4.10;;;22.20;53.40;;;;;;5070969;28;20087;-71
2022/12/04 00:41:03;;;;;;;7.13;4.72;;;22.20;53.50;;;;;;5070947;28;20059;-70
2022/12/04 00:43:30;;;;;;;8.95;4.90;;;22.20;53.50;;;;;;5070013;28;20032;-71
2022/12/04 00:45:56;;;;;;;7.45;4.63;;;22.20;53.30;;;;;;5052008;28;20048;-71
2022/12/04 00:48:22;;;;;;;3.17;2.20;;;22.10;53.40;;;;;;5070942;28;20432;-71
2022/12/04 00:50:48;;;;;;;7.10;4.85;;;22.10;53.50;;;;;;5068475;28;20049;-70
2022/12/04 00:53:15;;;;;;;6.03;3.97;;;22.20;53.20;;;;;;5069575;28;20355;-71
2022/12/04 00:55:42;;;;;;;8.73;4.35;;;22.30;53.00;;;;;;5071200;28;20055;-71
2022/12/04 00:58:08;;;;;;;4.38;3.40;;;22.40;52.90;;;;;;5071030;28;20040;-71
2022/12/04 01:00:39;;;;;;;2.90;2.33;;;22.40;52.90;;;;;;5070897;28;20064;-71
2022/12/04 01:03:06;;;;;;;7.05;4.60;;;22.30;52.80;;;;;;5070633;28;20033;-71
2022/12/04 01:05:36;;;;;;;5.50;4.20;;;22.30;53.10;;;;;;5070909;28;20040;-71
2022/12/04 01:08:02;;;;;;;8.63;4.53;;;22.20;53.20;;;;;;5069306;28;20040;-70
2022/12/04 01:10:28;;;;;;;8.43;4.85;;;22.30;53.20;;;;;;5056786;28;20110;-71
2022/12/04 01:12:54;;;;;;;7.38;4.43;;;22.30;53.20;;;;;;5049765;28;20039;-71
2022/12/04 01:15:20;;;;;;;4.93;3.78;;;22.30;53.50;;;;;;5050092;28;20036;-70
2022/12/04 01:17:46;;;;;;;6.80;4.00;;;22.30;53.60;;;;;;5050489;28;20045;-71
2022/12/04 01:20:13;;;;;;;6.30;4.50;;;22.30;53.40;;;;;;5033028;28;20061;-70
2022/12/04 01:22:39;;;;;;;4.75;3.75;;;22.40;53.20;;;;;;5050798;28;20068;-70
2022/12/04 01:25:06;;;;;;;5.25;3.47;;;22.40;53.10;;;;;;5050654;28;20029;-71
2022/12/04 01:27:32;;;;;;;7.60;4.30;;;22.40;52.90;;;;;;5050589;28;20082;-70
2022/12/04 01:29:58;;;;;;;7.85;4.63;;;22.50;52.80;;;;;;5032780;28;20486;-71
2022/12/04 01:32:24;;;;;;;5.07;4.05;;;22.60;52.80;;;;;;5032456;28;20070;-71
2022/12/04 01:34:50;;;;;;;7.88;4.85;;;22.50;53.00;;;;;;5032691;28;20051;-71
2022/12/04 01:37:16;;;;;;;5.03;3.60;;;22.50;53.10;;;;;;5050462;28;20033;-71
2022/12/04 01:39:42;;;;;;;8.60;4.88;;;22.50;53.00;;;;;;5050669;28;20082;-71
2022/12/04 01:42:14;;;;;;;7.68;4.18;;;22.40;52.80;;;;;;5029890;28;20497;-70
2022/12/04 01:45:22;;;;;;;5.75;3.85;;;22.40;52.80;;;;;;5031934;28;20046;-71
2022/12/04 01:47:48;;;;;;;7.78;5.35;;;22.30;53.00;;;;;;5034458;28;20623;-71
2022/12/04 01:50:14;;;;;;;10.23;4.45;;;22.30;53.10;;;;;;5032169;28;20053;-71
2022/12/04 01:52:40;;;;;;;7.18;4.60;;;22.10;53.60;;;;;;5031813;28;20048;-72
2022/12/04 01:55:07;;;;;;;8.68;4.97;;;22.10;53.90;;;;;;5031627;28;20041;-71
2022/12/04 01:57:34;;;;;;;8.00;5.00;;;22.10;53.70;;;;;;5031348;28;20531;-70
2022/12/04 02:00:08;;;;;;;6.95;4.53;;;22.00;53.70;;;;;;5031744;28;20099;-71
2022/12/04 02:02:41;;;;;;;5.80;4.13;;;22.00;53.70;;;;;;5038621;28;20492;-71
2022/12/04 02:05:11;;;;;;;6.43;3.90;;;22.20;53.50;;;;;;5051426;28;20040;-71
2022/12/04 02:07:40;;;;;;;7.00;4.40;;;22.30;53.10;;;;;;5051426;28;20493;-71
2022/12/04 02:10:07;;;;;;;8.43;5.00;;;22.20;52.80;;;;;;5051142;28;20088;-71
2022/12/04 02:12:52;;;;;;;6.20;4.55;;;22.30;53.20;;;;;;5038316;28;20048;-71
2022/12/04 02:15:22;;;;;;;5.00;3.83;;;22.20;53.00;;;;;;5073503;28;20645;-72
2022/12/04 02:18:03;;;;;;;6.35;4.43;;;22.10;53.30;;;;;;5073552;28;20469;-71
2022/12/04 02:20:52;;;;;;;11.10;5.60;;;22.10;53.50;;;;;;5073603;28;20040;-71
2022/12/04 02:23:49;;;;;;;7.20;3.80;;;22.10;53.30;;;;;;5073722;28;20037;-71
2022/12/04 02:26:23;;;;;;;7.88;4.88;;;22.20;53.40;;;;;;5073404;28;20090;-71
2022/12/04 02:28:49;;;;;;;6.25;3.63;;;22.10;53.40;;;;;;5038898;28;20446;-71
2022/12/04 02:31:24;;;;;;;8.27;5.05;;;22.20;53.30;;;;;;5073740;28;20053;-71
2022/12/04 02:34:13;;;;;;;10.07;4.18;;;22.40;53.30;;;;;;5055180;28;20370;-71
2022/12/04 02:36:49;;;;;;;8.60;5.07;;;22.40;53.30;;;;;;5073043;28;20121;-71
2022/12/04 02:39:34;;;;;;;10.30;5.53;;;22.20;53.00;;;;;;5072511;28;20037;-71
2022/12/04 02:42:13;;;;;;;9.98;4.88;;;22.30;53.10;;;;;;5054781;28;20021;-71
2022/12/04 02:44:52;;;;;;;8.40;5.75;;;22.20;53.30;;;;;;5072822;28;20024;-69
2022/12/04 02:47:22;;;;;;;8.50;5.55;;;22.20;53.30;;;;;;5072545;28;20073;-71
2022/12/04 02:49:55;;;;;;;7.75;4.68;;;22.10;53.30;;;;;;5073279;28;20097;-71
2022/12/04 02:52:27;;;;;;;11.05;5.80;;;22.00;53.80;;;;;;5073321;28;20043;-71
2022/12/04 02:54:58;;;;;;;9.43;4.93;;;22.00;53.50;;;;;;5072666;28;20040;-71
2022/12/04 02:57:30;;;;;;;7.80;4.80;;;21.90;53.50;;;;;;5072931;28;20054;-70
2022/12/04 02:59:58;;;;;;;9.15;5.47;;;22.10;53.60;;;;;;5072989;28;20032;-71
2022/12/04 03:02:33;;;;;;;9.32;5.93;;;21.90;53.70;;;;;;5072919;28;20477;-71
2022/12/04 03:05:03;;;;;;;9.15;5.68;;;21.80;53.70;;;;;;5073283;28;20042;-71
2022/12/04 03:07:52;;;;;;;11.93;5.95;;;21.60;54.10;;;;;;5073107;28;20158;-71
2022/12/04 03:10:27;;;;;;;8.23;4.97;;;21.60;54.30;;;;;;5072943;28;20056;-70
2022/12/04 03:13:02;;;;;;;6.68;4.53;;;21.60;54.20;;;;;;5072796;28;20052;-71
2022/12/04 03:15:41;;;;;;;10.52;4.60;;;21.50;54.40;;;;;;5072910;28;20463;-71
2022/12/04 03:18:24;;;;;;;10.45;5.63;;;21.50;54.00;;;;;;5071777;28;20044;-71
2022/12/04 03:20:59;;;;;;;4.72;3.17;;;21.50;54.10;;;;;;5071719;28;20028;-70
2022/12/04 03:23:33;;;;;;;9.82;5.55;;;21.50;54.60;;;;;;5072118;28;20077;-71
2022/12/04 03:26:23;;;;;;;8.10;4.78;;;21.70;54.10;;;;;;5054515;28;20085;-71
2022/12/04 03:29:34;;;;;;;6.80;3.65;;;21.60;53.70;;;;;;5072602;28;20067;-71
2022/12/04 03:32:13;;;;;;;8.77;5.05;;;21.60;53.80;;;;;;4971388;28;20035;-71
2022/12/04 03:35:02;;;;;;;8.13;5.35;;;21.60;53.50;;;;;;4971199;28;20051;-71
2022/12/04 03:37:53;;;;;;;6.95;5.10;;;21.40;53.90;;;;;;4955975;28;20129;-71
2022/12/04 03:40:42;;;;;;;8.38;5.10;;;21.50;53.70;;;;;;4951768;28;20047;-70
2022/12/04 03:43:33;;;;;;;7.88;4.82;;;21.30;54.20;;;;;;4971047;28;20500;-71
2022/12/04 03:46:28;;;;;;;8.85;5.03;;;21.20;54.20;;;;;;4954561;28;20069;-71
2022/12/04 03:49:16;;;;;;;9.07;5.00;;;21.30;54.40;;;;;;4912990;29;20553;-71
2022/12/04 03:51:49;;;;;;;7.43;5.30;;;21.20;54.20;;;;;;4896988;29;20032;-71
2022/12/04 03:54:30;;;;;;;9.38;4.63;;;21.20;54.20;;;;;;4912838;29;20044;-71
2022/12/04 03:57:01;;;;;;;7.28;4.93;;;21.20;54.20;;;;;;4911443;29;20036;-70
2022/12/04 03:59:42;;;;;;;6.95;4.35;;;21.10;54.20;;;;;;4878691;29;20426;-71
2022/12/04 04:02:14;;;;;;;9.98;5.03;;;21.20;54.10;;;;;;4894731;29;20072;-71
2022/12/04 04:04:43;;;;;;;7.30;4.77;;;21.20;53.80;;;;;;4879242;29;20049;-71
2022/12/04 04:07:29;;;;;;;11.93;5.75;;;21.20;54.00;;;;;;4935144;29;20419;-70
2022/12/04 04:10:00;;;;;;;10.90;5.30;;;21.30;53.60;;;;;;4942803;28;20051;-71
2022/12/04 04:12:31;;;;;;;10.75;5.60;;;21.20;53.50;;;;;;4970552;28;20053;-71
2022/12/04 04:26:17;;;;;;;8.98;5.00;;;21.00;53.50;;;;;;5023293;28;20450;-69
2022/12/04 04:28:44;;;;;;;9.13;5.40;;;21.10;53.60;;;;;;5051190;28;20041;-70
2022/12/04 04:31:15;;;;;;;7.63;4.80;;;21.00;53.90;;;;;;5051257;28;20109;-70
2022/12/04 04:33:53;;;;;;;12.40;5.13;;;21.00;53.70;;;;;;5049890;28;20449;-70
2022/12/04 04:36:44;;;;;;;8.43;4.53;;;20.90;53.70;;;;;;5051559;28;20041;-70
2022/12/04 04:39:29;;;;;;;10.73;5.25;;;21.00;53.70;;;;;;5051285;28;20163;-70
2022/12/04 04:42:20;;;;;;;8.30;4.45;;;21.00;53.60;;;;;;5051175;28;20025;-71
2022/12/04 04:45:10;;;;;;;9.23;5.22;;;21.00;53.70;;;;;;5050837;28;20136;-70
2022/12/04 04:47:39;;;;;;;9.43;4.20;;;20.90;53.50;;;;;;5051272;28;20033;-71
2022/12/04 04:50:08;;;;;;;8.02;3.83;;;21.10;53.70;;;;;;5051056;28;20087;-71
2022/12/04 04:52:37;;;;;;;6.60;4.60;;;21.10;53.40;;;;;;5050959;28;20041;-71
2022/12/04 04:55:04;;;;;;;9.43;4.85;;;21.30;53.00;;;;;;5049794;28;20100;-71
2022/12/04 04:57:34;;;;;;;7.82;4.28;;;21.40;52.70;;;;;;5051146;28;20051;-70
2022/12/04 05:00:06;;;;;;;7.70;3.63;;;21.40;52.50;;;;;;5050920;28;20040;-71
2022/12/04 05:02:32;;;;;;;8.30;5.28;;;21.60;52.40;;;;;;5051055;28;20040;-70
2022/12/04 05:04:58;;;;;;;8.43;4.82;;;21.60;51.80;;;;;;5050984;28;20083;-71
2022/12/04 05:07:24;;;;;;;7.93;4.70;;;21.60;52.40;;;;;;5048251;28;20454;-71
2022/12/04 05:09:50;;;;;;;9.43;5.68;;;21.80;57.40;;;;;;5057092;28;21220;-73
2022/12/04 05:12:16;;;;;;;10.82;5.25;;;22.30;59.60;;;;;;5070690;28;20389;-71
2022/12/04 05:14:42;;;;;;;8.50;5.72;;;22.50;60.10;;;;;;5071082;28;20050;-70
2022/12/04 05:17:08;;;;;;;9.10;5.00;;;22.60;56.90;;;;;;5070260;28;20466;-71
2022/12/04 05:19:53;;;;;;;6.70;3.75;;;22.30;55.20;;;;;;5070641;28;20031;-75
2022/12/04 05:22:20;;;;;;;5.93;3.58;;;22.20;55.10;;;;;;5070817;28;20031;-76
2022/12/04 05:24:46;;;;;;;7.57;4.30;;;22.20;54.80;;;;;;5070752;28;20032;-74
2022/12/04 05:27:12;;;;;;;7.60;4.57;;;22.30;52.70;;;;;;5071142;28;20041;-77
2022/12/04 05:29:38;;;;;;;7.70;4.82;;;22.40;50.60;;;;;;5070668;28;20040;-76
2022/12/04 05:32:04;;;;;;;9.57;4.93;;;22.50;48.80;;;;;;5070253;28;20053;-76
2022/12/04 05:34:31;;;;;;;7.97;4.15;;;22.40;47.10;;;;;;5088589;28;20028;-77
2022/12/04 05:36:56;;;;;;;8.45;4.90;;;22.60;45.70;;;;;;5090831;28;20496;-76
2022/12/04 05:39:22;;;;;;;5.57;3.72;;;22.60;44.50;;;;;;5090850;28;20088;-75
2022/12/04 05:41:48;;;;;;;7.82;5.07;;;22.70;43.50;;;;;;5090879;28;20028;-70
2022/12/04 05:44:14;;;;;;;7.72;5.57;;;22.60;42.10;;;;;;5071499;28;20040;-69
2022/12/04 05:46:40;;;;;;;10.32;4.38;;;22.50;42.10;;;;;;5090705;28;20059;-69
2022/12/04 05:49:06;;;;;;;11.55;6.03;;;22.30;43.70;;;;;;5081055;28;20060;-73
2022/12/04 05:51:32;;;;;;;8.65;4.43;;;22.40;44.30;;;;;;5070368;28;20032;-68
2022/12/04 05:53:58;;;;;;;4.15;3.20;;;22.20;43.70;;;;;;5068256;28;20044;-67
2022/12/04 05:56:24;;;;;;;3.65;2.60;;;22.30;42.90;;;;;;5051181;28;20448;-68
2022/12/04 05:58:50;;;;;;;5.80;4.18;;;22.40;45.60;;;;;;5070461;28;20481;-67
2022/12/04 06:01:19;;;;;;;4.72;3.40;;;22.30;43.40;;;;;;5051229;28;20126;-71
2022/12/04 06:03:45;;;;;;;4.10;3.40;;;22.40;40.00;;;;;;5070658;28;20449;-71
2022/12/04 06:06:17;;;;;;;9.38;5.60;;;22.20;39.60;;;;;;5070300;28;20024;-71
2022/12/04 06:08:43;;;;;;;5.88;4.22;;;22.10;41.00;;;;;;5070466;28;20117;-71
2022/12/04 06:11:13;;;;;;;7.13;4.72;;;22.20;41.60;;;;;;5051688;28;20073;-71
2022/12/04 06:13:41;;;;;;;7.50;4.50;;;22.20;41.70;;;;;;5032377;28;20057;-71
2022/12/04 06:16:20;;;;;;;5.35;3.97;;;22.10;43.00;;;;;;5049853;28;20463;-71
2022/12/04 06:18:50;;;;;;;5.43;3.58;;;22.00;41.50;;;;;;5050257;28;20473;-70
2022/12/04 06:21:17;;;;;;;6.20;4.28;;;22.00;41.00;;;;;;5050119;28;20033;-72
2022/12/04 06:23:43;;;;;;;9.00;4.78;;;22.00;40.40;;;;;;5049944;28;20056;-72
2022/12/04 06:26:09;;;;;;;7.90;4.53;;;22.00;42.40;;;;;;5049824;28;20474;-73
2022/12/04 06:28:36;;;;;;;7.63;4.25;;;22.00;43.20;;;;;;5051254;28;20129;-70
2022/12/04 06:31:08;;;;;;;7.82;4.25;;;21.90;42.80;;;;;;5053673;28;20131;-71
2022/12/04 06:33:35;;;;;;;7.95;4.63;;;21.80;42.90;;;;;;5053799;28;20032;-70
2022/12/04 06:36:07;;;;;;;7.68;4.53;;;21.90;42.10;;;;;;5053309;28;20425;-69
2022/12/04 06:38:33;;;;;;;7.70;5.10;;;21.90;42.50;;;;;;5017953;28;20053;-70
2022/12/04 06:41:03;;;;;;;9.90;4.97;;;21.80;42.70;;;;;;5053440;28;20029;-71
2022/12/04 06:43:29;;;;;;;5.18;4.25;;;21.80;42.40;;;;;;5053433;28;20621;-71
2022/12/04 06:46:03;;;;;;;5.35;3.83;;;21.80;41.40;;;;;;5053427;28;20032;-71
2022/12/04 06:48:30;;;;;;;10.50;5.78;;;21.70;39.90;;;;;;5053375;28;20041;-74
2022/12/04 06:51:05;;;;;;;9.10;4.57;;;21.70;41.00;;;;;;5017787;28;20755;-69
2022/12/04 06:53:32;;;;;;;5.65;4.43;;;21.60;40.50;;;;;;5053043;28;20033;-70
2022/12/04 06:56:00;;;;;;;6.90;4.53;;;21.70;40.90;;;;;;5000923;28;20033;-71
2022/12/04 06:58:26;;;;;;;6.60;4.18;;;21.70;38.70;;;;;;5017449;28;20211;-71
2022/12/04 07:00:53;;;;;;;8.88;5.40;;;21.70;40.70;;;;;;5062567;28;20120;-71
2022/12/04 07:03:20;;;;;;;7.35;4.93;;;21.80;53.40;;;;;;5063707;28;20086;-71
2022/12/04 07:05:46;;;;;;;7.00;5.57;;;22.00;53.80;;;;;;5064071;28;20078;-72
2022/12/04 07:08:12;;;;;;;11.45;6.03;;;22.00;54.00;;;;;;5054118;28;20426;-68
2022/12/04 07:10:39;;;;;;;9.50;5.70;;;22.00;54.00;;;;;;5052835;28;20040;-70
2022/12/04 07:13:05;;;;;;;6.45;3.70;;;22.00;53.90;;;;;;5069500;28;20031;-72
2022/12/04 07:15:33;;;;;;;6.07;4.28;;;22.00;55.10;;;;;;5010688;28;20061;-71
2022/12/04 07:17:59;;;;;;;7.53;5.32;;;22.00;55.20;;;;;;5066804;28;20052;-74
2022/12/04 07:20:26;;;;;;;6.97;5.25;;;22.20;55.40;;;;;;5056117;28;20029;-75
2022/12/04 07:22:52;;;;;;;6.53;4.15;;;22.30;55.40;;;;;;5053072;28;20036;-71
2022/12/04 07:25:18;;;;;;;7.90;4.93;;;22.10;54.90;;;;;;5063683;28;20025;-71
2022/12/04 07:27:44;;;;;;;8.07;4.35;;;22.10;55.40;;;;;;5072814;28;20473;-74
2022/12/04 07:30:11;;;;;;;7.60;5.30;;;22.10;55.20;;;;;;5069470;28;20390;-72
2022/12/04 07:32:37;;;;;;;7.57;5.25;;;22.00;55.50;;;;;;5069090;28;20536;-71
2022/12/04 07:35:04;;;;;;;11.00;6.53;;;22.00;55.60;;;;;;5059819;28;20112;-70
2022/12/04 07:37:30;;;;;;;9.10;5.13;;;21.90;54.70;;;;;;5062025;28;20098;-70
2022/12/04 07:39:56;;;;;;;6.57;4.45;;;21.90;56.80;;;;;;5061104;28;20028;-71
2022/12/04 07:42:22;;;;;;;11.48;5.57;;;21.90;57.10;;;;;;5041321;28;20078;-71
2022/12/04 07:44:48;;;;;;;7.88;5.13;;;21.90;55.70;;;;;;5061597;28;20056;-72
2022/12/04 07:47:14;;;;;;;10.05;5.28;;;22.00;56.30;;;;;;5062465;28;20024;-72
2022/12/04 07:49:40;;;;;;;7.32;5.03;;;22.00;55.90;;;;;;5060686;28;20519;-71
2022/12/04 07:52:06;;;;;;;7.93;4.82;;;22.00;55.90;;;;;;5042996;28;20354;-70
2022/12/04 07:54:32;;;;;;;8.93;4.30;;;22.00;56.20;;;;;;5056743;28;20158;-70
2022/12/04 07:56:58;;;;;;;6.28;5.22;;;21.90;56.40;;;;;;5051954;28;20394;-72
2022/12/04 07:59:24;;;;;;;8.85;5.18;;;22.20;56.30;;;;;;5052085;28;20029;-71
2022/12/04 08:01:50;;;;;;;6.72;5.00;;;22.00;56.30;;;;;;5053778;28;20037;-70
2022/12/04 08:04:16;;;;;;;7.55;5.35;;;22.00;57.00;;;;;;5061952;28;20036;-69
2022/12/04 08:06:42;;;;;;;7.78;4.72;;;21.90;57.20;;;;;;5056165;28;20107;-69
2022/12/04 08:09:08;;;;;;;6.03;4.55;;;21.90;56.70;;;;;;5005660;28;20049;-69
2022/12/04 08:11:34;;;;;;;9.57;5.25;;;22.00;56.80;;;;;;5059193;28;20025;-70
2022/12/04 08:14:02;;;;;;;7.97;5.28;;;21.80;56.90;;;;;;5065633;28;20469;-69
2022/12/04 08:16:30;;;;;;;5.93;3.85;;;21.80;57.50;;;;;;5071401;28;20111;-69
2022/12/04 08:18:57;;;;;;;5.28;3.33;;;21.70;58.30;;;;;;5032693;28;20060;-67
2022/12/04 08:21:25;;;;;;;6.93;3.70;;;21.70;58.30;;;;;;5062821;28;20025;-69
2022/12/04 08:23:53;;;;;;;9.13;4.20;;;21.90;57.70;;;;;;5064183;28;20040;-68
2022/12/04 08:26:22;;;;;;;8.98;4.90;;;22.00;56.00;;;;;;5061168;28;20204;-69
2022/12/04 08:28:51;;;;;;;5.82;4.00;;;22.20;54.30;;;;;;5057996;28;20044;-69
2022/12/04 08:31:25;;;;;;;6.63;4.25;;;22.30;52.70;;;;;;5053432;28;20041;-68
2022/12/04 08:33:54;;;;;;;3.80;3.08;;;22.40;50.90;;;;;;5051794;28;20119;-68
2022/12/04 08:36:21;;;;;;;10.27;4.85;;;22.40;50.30;;;;;;5051427;28;20024;-69
2022/12/04 08:38:47;;;;;;;7.75;3.95;;;22.50;50.40;;;;;;5033625;28;20048;-69
2022/12/04 08:41:16;;;;;;;6.45;4.88;;;22.40;50.10;;;;;;5051182;28;20037;-71
2022/12/04 08:43:42;;;;;;;11.35;5.88;;;22.50;46.40;;;;;;5056263;28;20025;-71
2022/12/04 08:46:12;;;;;;;8.00;4.43;;;22.70;41.40;;;;;;5071296;28;20033;-68
2022/12/04 08:48:39;;;;;;;5.85;3.75;;;22.80;40.20;;;;;;5071337;28;20477;-70
2022/12/04 08:51:08;;;;;;;8.15;4.88;;;22.80;40.80;;;;;;5070278;28;20026;-72
2022/12/04 08:53:38;;;;;;;6.63;4.47;;;23.00;42.50;;;;;;5071349;28;20120;-67
2022/12/04 08:56:04;;;;;;;8.50;5.60;;;23.20;41.70;;;;;;5067922;28;20489;-66
2022/12/04 08:58:30;;;;;;;6.78;5.85;;;23.10;47.50;;;;;;5071224;28;20040;-67
2022/12/04 09:01:06;;;;;;;6.75;5.15;;;23.30;48.70;;;;;;5035595;28;20045;-67
2022/12/04 09:03:32;;;;;;;9.52;4.60;;;23.20;47.50;;;;;;5050928;28;20486;-66
2022/12/04 09:05:59;;;;;;;9.55;4.15;;;23.10;48.60;;;;;;5008154;28;20112;-70
2022/12/04 09:08:26;;;;;;;7.22;4.10;;;23.10;49.40;;;;;;5053074;28;20112;-68
2022/12/04 09:10:52;;;;;;;5.95;5.32;;;23.20;50.00;;;;;;5050638;28;20462;-69
2022/12/04 09:13:18;;;;;;;7.45;5.05;;;23.10;49.90;;;;;;5062698;28;20037;-68
2022/12/04 09:15:44;;;;;;;11.85;6.63;;;23.10;48.60;;;;;;5051002;28;20025;-68
2022/12/04 09:18:09;;;;;;;7.93;4.57;;;23.00;49.70;;;;;;5050700;28;20398;-68
2022/12/04 09:20:36;;;;;;;8.35;5.80;;;23.00;49.90;;;;;;5053443;28;20093;-66
2022/12/04 09:23:03;;;;;;;6.78;4.25;;;23.00;51.40;;;;;;5038252;28;20029;-67
2022/12/04 09:25:29;;;;;;;7.22;5.45;;;23.00;51.60;;;;;;5050421;28;20037;-68
2022/12/04 09:27:55;;;;;;;8.18;5.25;;;23.00;49.70;;;;;;5050855;28;20021;-68
2022/12/04 09:30:21;;;;;;;8.05;5.43;;;23.00;51.00;;;;;;5044945;28;20045;-70
2022/12/04 09:32:47;;;;;;;9.57;5.07;;;22.90;50.50;;;;;;5059613;28;20028;-68
2022/12/04 09:35:13;;;;;;;8.57;5.95;;;22.80;51.30;;;;;;5018188;28;20048;-67
2022/12/04 09:37:39;;;;;;;5.82;4.38;;;22.70;52.40;;;;;;5070812;28;20033;-67
2022/12/04 09:40:06;;;;;;;9.45;5.35;;;22.70;53.10;;;;;;5070364;28;20201;-68
2022/12/04 09:42:53;;;;;;;9.52;6.32;;;22.70;52.70;;;;;;5070546;28;20064;-67
2022/12/04 09:45:25;;;;;;;8.18;4.40;;;22.60;47.20;;;;;;5062447;28;20045;-65
2022/12/04 09:47:55;;;;;;;4.95;4.43;;;23.00;44.20;;;;;;5051897;28;20036;-69
2022/12/04 09:50:28;;;;;;;17.67;5.88;;;23.10;43.70;;;;;;5056968;28;20033;-66
2022/12/04 09:53:04;;;;;;;7.30;4.13;;;23.40;43.70;;;;;;5063438;28;20052;-67
2022/12/04 09:55:39;;;;;;;6.38;4.85;;;23.60;45.70;;;;;;5059909;28;20116;-70
2022/12/04 09:58:12;;;;;;;6.97;4.30;;;23.70;44.50;;;;;;5064651;28;20067;-65
2022/12/04 10:00:42;;;;;;;6.53;3.87;;;23.80;40.90;;;;;;5068241;28;20028;-65
2022/12/04 10:03:17;;;;;;;9.55;4.53;;;23.90;36.60;;;;;;5066886;28;20285;-69
2022/12/04 10:06:02;;;;;;;14.57;6.88;;;23.80;37.30;;;;;;5063486;28;20500;-62
2022/12/04 10:08:33;;;;;;;9.75;4.63;;;23.90;35.50;;;;;;5055518;28;20024;-66
2022/12/04 10:11:21;;;;;;;9.55;6.50;;;23.90;44.30;;;;;;5062975;28;20036;-66
2022/12/04 10:13:52;;;;;;;11.23;5.95;;;23.90;47.90;;;;;;5059915;28;20496;-65
2022/12/04 10:16:23;;;;;;;9.63;6.50;;;24.20;47.80;;;;;;5057556;28;20041;-65
2022/12/04 10:18:55;;;;;;;7.57;6.10;;;23.90;49.10;;;;;;5053628;28;20087;-65
2022/12/04 10:21:27;;;;;;;13.77;8.10;;;23.80;47.30;;;;;;5062612;28;20068;-63
2022/12/04 10:24:14;;;;;;;10.43;6.75;;;23.90;48.50;;;;;;5070007;28;20770;-65
2022/12/04 10:26:45;;;;;;;13.43;7.75;;;23.90;50.30;;;;;;5054054;28;20072;-67
2022/12/04 10:29:29;;;;;;;10.60;6.53;;;23.80;50.60;;;;;;5048598;28;20369;-67
2022/12/04 10:32:04;;;;;;;8.38;4.90;;;23.90;39.50;;;;;;5072385;28;20111;-67
2022/12/04 10:34:31;;;;;;;12.18;5.93;;;23.90;36.80;;;;;;5073504;28;20450;-67
2022/12/04 10:37:08;;;;;;;11.88;5.40;;;24.00;36.40;;;;;;5072881;28;20027;-70
2022/12/04 10:39:40;;;;;;;24.10;6.22;;;24.00;37.40;;;;;;5060910;28;20112;-66
2022/12/04 10:42:21;;;;;;;9.60;6.30;;;24.10;36.20;;;;;;5053355;28;20036;-70
2022/12/04 10:44:47;;;;;;;8.18;5.18;;;24.20;36.90;;;;;;5061183;28;20062;-65
2022/12/04 10:47:13;;;;;;;14.60;6.60;;;24.10;35.60;;;;;;5053229;28;20037;-66
2022/12/04 10:49:39;;;;;;;8.77;7.03;;;24.20;35.50;;;;;;5020895;28;20068;-66
2022/12/04 10:52:09;;;;;;;8.93;5.07;;;24.20;33.20;;;;;;5072818;28;20032;-65
2022/12/04 10:54:39;;;;;;;5.68;4.88;;;24.30;41.00;;;;;;5072721;28;20040;-64
2022/12/04 10:57:10;;;;;;;9.10;5.78;;;24.30;45.90;;;;;;5072387;28;20059;-65
2022/12/04 10:59:51;;;;;;;9.93;6.10;;;24.20;47.10;;;;;;5067781;28;20045;-64
2022/12/04 11:02:22;;;;;;;9.95;5.38;;;24.20;47.60;;;;;;5050604;28;20029;-65
2022/12/04 11:05:21;;;;;;;13.18;6.97;;;24.30;47.10;;;;;;5058174;28;20381;-65
2022/12/04 11:07:48;;;;;;;13.27;6.43;;;24.50;44.70;;;;;;5064703;28;20412;-65
2022/12/04 11:10:28;;;;;;;11.48;5.85;;;24.70;45.00;;;;;;5073124;28;20048;-66
2022/12/04 11:12:55;;;;;;;11.75;6.82;;;24.50;36.10;;;;;;5062976;28;20543;-65
2022/12/04 11:15:22;;;;;;;9.07;5.63;;;24.40;38.90;;;;;;5069272;28;20044;-65
2022/12/04 11:17:48;;;;;;;8.40;5.60;;;24.50;45.00;;;;;;5068972;28;20068;-65
2022/12/04 11:20:20;;;;;;;6.82;5.40;;;24.70;41.30;;;;;;5052746;28;20029;-63
2022/12/04 11:22:55;;;;;;;12.90;6.18;;;24.60;42.40;;;;;;5056915;28;20431;-66
2022/12/04 11:25:24;;;;;;;12.73;5.68;;;24.80;40.00;;;;;;5072740;28;20486;-64
2022/12/04 11:27:56;;;;;;;5.78;4.05;;;24.70;41.70;;;;;;5072276;28;20086;-65
2022/12/04 11:30:30;;;;;;;10.88;4.57;;;24.70;37.70;;;;;;5052456;28;20381;-64
2022/12/04 11:32:57;;;;;;;8.98;4.72;;;24.80;34.90;;;;;;5057780;28;20024;-66
2022/12/04 11:35:26;;;;;;;9.80;5.57;;;24.70;35.60;;;;;;5066982;28;20078;-64
2022/12/04 11:38:12;;;;;;;11.48;6.07;;;24.80;46.70;;;;;;5060631;28;20155;-64
2022/12/04 11:40:44;;;;;;;10.23;4.97;;;24.70;47.20;;;;;;5062915;28;20036;-66
2022/12/04 11:43:14;;;;;;;9.05;5.97;;;24.80;48.30;;;;;;5072109;28;20031;-64
2022/12/04 11:45:41;;;;;;;12.07;6.95;;;24.90;48.80;;;;;;5051477;28;20555;-64
2022/12/04 11:48:15;;;;;;;5.70;3.70;;;24.70;48.90;;;;;;5072360;28;20036;-65
2022/12/04 11:51:00;;;;;;;10.75;6.57;;;24.60;49.80;;;;;;5072223;28;20565;-65
2022/12/04 11:54:01;;;;;;;10.00;5.55;;;24.80;49.90;;;;;;5063502;28;20108;-66
2022/12/04 11:56:33;;;;;;;8.32;6.75;;;24.70;49.70;;;;;;4954523;28;20042;-64
2022/12/04 11:59:36;;;;;;;8.30;6.32;;;24.70;49.20;;;;;;4970847;28;20059;-64
2022/12/04 12:02:02;;;;;;;7.72;5.95;;;24.60;50.00;;;;;;4970699;28;20040;-64
2022/12/04 12:04:52;;;;;;;8.65;6.00;;;24.40;50.30;;;;;;4970707;28;20081;-64
2022/12/04 12:07:23;;;;;;;10.07;6.55;;;24.20;51.20;;;;;;4970732;28;20070;-64
2022/12/04 12:10:16;;;;;;;9.77;6.65;;;24.20;50.70;;;;;;4982318;28;20112;-65
2022/12/04 12:13:00;;;;;;;7.13;6.00;;;24.20;51.30;;;;;;4989974;28;20133;-65
2022/12/04 12:15:45;;;;;;;8.15;6.00;;;24.00;51.90;;;;;;4974054;28;20042;-66
2022/12/04 12:18:16;;;;;;;9.88;6.75;;;23.80;52.60;;;;;;4989970;28;20078;-66
2022/12/04 12:21:06;;;;;;;10.43;6.70;;;23.80;52.80;;;;;;4989943;28;20382;-63
2022/12/04 12:24:01;;;;;;;8.02;4.88;;;23.80;53.10;;;;;;4989532;28;20125;-65
2022/12/04 12:26:37;;;;;;;9.77;6.43;;;23.80;52.80;;;;;;4988955;28;20478;-65
2022/12/04 12:29:15;;;;;;;8.18;5.53;;;23.80;52.80;;;;;;4989635;28;20126;-64
2022/12/04 12:31:56;;;;;;;7.53;5.18;;;23.90;52.80;;;;;;5071291;28;20059;-64
2022/12/04 12:34:33;;;;;;;11.13;6.97;;;24.00;52.50;;;;;;5071520;28;20052;-65
2022/12/04 12:37:07;;;;;;;9.45;6.57;;;24.10;52.30;;;;;;5071162;28;20032;-65
2022/12/04 12:39:49;;;;;;;8.05;5.75;;;24.10;52.40;;;;;;5071458;28;20552;-66
2022/12/04 12:42:23;;;;;;;9.20;6.10;;;23.90;52.30;;;;;;5072119;28;20032;-67
2022/12/04 12:45:19;;;;;;;7.75;5.32;;;24.00;52.50;;;;;;5091495;28;20525;-66
2022/12/04 12:47:49;;;;;;;7.78;4.90;;;24.10;52.60;;;;;;5090169;28;20431;-70
2022/12/04 12:50:23;;;;;;;9.18;6.75;;;24.10;52.40;;;;;;5091732;28;20034;-69
2022/12/04 12:52:51;;;;;;;7.60;4.93;;;24.30;52.30;;;;;;5091356;28;20070;-67
2022/12/04 12:55:23;;;;;;;5.30;2.53;;;24.20;51.90;;;;;;5088839;28;20040;-66
2022/12/04 12:58:04;;;;;;;11.50;7.53;;;24.30;51.10;;;;;;5091112;28;20473;-65
2022/12/04 13:00:35;;;;;;;9.63;6.70;;;24.20;50.50;;;;;;5091375;28;20066;-66
2022/12/04 13:03:43;;;;;;;10.73;6.88;;;24.20;50.60;;;;;;5091151;28;20043;-67
2022/12/04 13:06:15;;;;;;;8.52;5.53;;;24.30;51.00;;;;;;5091364;28;20032;-67
2022/12/04 13:09:12;;;;;;;8.10;5.32;;;24.30;52.80;;;;;;5091314;28;20449;-67
2022/12/04 13:11:39;;;;;;;10.23;4.95;;;24.40;54.90;;;;;;5091109;28;20046;-67
2022/12/04 13:14:05;;;;;;;8.02;4.93;;;24.40;54.10;;;;;;5090928;28;20028;-66
2022/12/04 13:16:49;;;;;;;6.20;4.72;;;24.30;53.40;;;;;;5071875;28;20036;-66
2022/12/04 13:19:15;;;;;;;9.93;7.30;;;24.50;53.00;;;;;;5090840;28;20043;-65
2022/12/04 13:22:18;;;;;;;6.78;4.57;;;24.40;53.40;;;;;;5090842;28;20089;-66